createdAt,value
2022-11-24T00:01:31.730Z,101342.06
2022-11-24T00:04:01.776Z,101343.97
2022-11-24T00:06:30.822Z,101370.31
2022-11-24T00:08:59.367Z,101357.13
2022-11-24T00:11:33.054Z,101348.09
2022-11-24T00:14:01.649Z,101351.88
2022-11-24T00:16:33.232Z,101350.00
2022-11-24T00:19:03.609Z,101342.75
2022-11-24T00:21:32.622Z,101345.25
2022-11-24T00:24:00.624Z,101346.19
2022-11-24T00:26:31.173Z,101348.56
2022-11-24T00:29:30.910Z,101351.53
2022-11-24T00:31:58.577Z,101339.19
2022-11-24T00:34:26.120Z,101357.69
2022-11-24T00:36:53.655Z,101363.41
2022-11-24T00:39:21.150Z,101371.13
2022-11-24T00:41:48.869Z,101362.13
2022-11-24T00:44:16.508Z,101362.22
2022-11-24T00:46:44.248Z,101368.28
2022-11-24T00:49:12.137Z,101368.72
2022-11-24T00:51:40.045Z,101356.41
2022-11-24T00:54:07.468Z,101365.69
2022-11-24T00:56:35.227Z,101356.41
2022-11-24T00:59:02.764Z,101360.44
2022-11-24T01:01:31.550Z,101368.53
2022-11-24T01:04:03.753Z,101368.41
2022-11-24T01:06:32.887Z,101364.38
2022-11-24T01:09:00.461Z,101360.44
2022-11-24T01:11:50.729Z,101357.50
2022-11-24T01:14:19.102Z,101355.69
2022-11-24T01:16:46.702Z,101343.00
2022-11-24T01:19:14.348Z,101339.78
2022-11-24T01:21:41.829Z,101343.00
2022-11-24T01:24:11.068Z,101340.25
2022-11-24T01:26:39.451Z,101335.84
2022-11-24T01:29:06.850Z,101352.50
2022-11-24T01:31:34.352Z,101342.41
2022-11-24T01:34:01.997Z,101350.94
2022-11-24T01:36:29.712Z,101372.09
2022-11-24T01:38:57.284Z,101371.50
2022-11-24T01:41:26.562Z,101367.34
2022-11-24T01:44:00.585Z,101370.44
2022-11-24T01:46:34.315Z,101378.00
2022-11-24T01:49:13.886Z,101378.03
2022-11-24T01:52:04.627Z,101373.28
2022-11-24T01:54:36.799Z,101366.75
2022-11-24T01:57:16.959Z,101364.63
2022-11-24T01:59:48.302Z,101379.44
2022-11-24T02:02:20.974Z,101383.03
2022-11-24T02:04:49.578Z,101388.47
2022-11-24T02:07:17.165Z,101381.94
2022-11-24T02:09:52.244Z,101379.34
2022-11-24T02:12:19.504Z,101376.84
2022-11-24T02:15:26.178Z,101370.63
2022-11-24T02:17:59.735Z,101359.97
2022-11-24T02:20:27.416Z,101361.84
2022-11-24T02:23:04.156Z,101359.50
2022-11-24T02:25:36.330Z,101371.72
2022-11-24T02:28:09.036Z,101370.44
2022-11-24T02:30:36.701Z,101377.81
2022-11-24T02:35:45.741Z,101378.97
2022-11-24T02:38:14.181Z,101382.06
2022-11-24T02:40:43.669Z,101375.78
2022-11-24T02:43:15.150Z,101368.91
2022-11-24T02:45:42.762Z,101388.25
2022-11-24T02:48:19.254Z,101386.22
2022-11-24T02:50:47.045Z,101377.09
2022-11-24T02:53:14.467Z,101388.25
2022-11-24T02:55:42.031Z,101403.22
2022-11-24T02:58:09.602Z,101392.44
2022-11-24T03:00:37.344Z,101391.81
2022-11-24T03:03:04.846Z,101390.41
2022-11-24T03:05:32.497Z,101387.19
2022-11-24T03:07:59.908Z,101395.13
2022-11-24T03:10:28.759Z,101396.94
2022-11-24T03:12:56.818Z,101407.97
2022-11-24T03:15:24.894Z,101404.06
2022-11-24T03:18:42.906Z,101407.75
2022-11-24T03:21:00.295Z,101403.91
2022-11-24T03:23:27.749Z,101411.66
2022-11-24T03:25:55.306Z,101411.31
2022-11-24T03:28:22.852Z,101411.66
2022-11-24T03:30:50.726Z,101408.44
2022-11-24T03:33:18.214Z,101415.59
2022-11-24T03:35:45.815Z,101416.53
2022-11-24T03:38:13.266Z,101412.00
2022-11-24T03:40:40.809Z,101417.81
2022-11-24T03:43:08.350Z,101412.50
2022-11-24T03:45:46.161Z,101414.63
2022-11-24T03:48:16.098Z,101410.69
2022-11-24T03:50:44.164Z,101391.22
2022-11-24T03:53:11.771Z,101403.94
2022-11-24T03:55:39.387Z,101407.72
2022-11-24T03:58:07.022Z,101407.84
2022-11-24T04:00:34.525Z,101406.41
2022-11-24T04:03:02.212Z,101415.22
2022-11-24T04:05:29.687Z,101419.59
2022-11-24T04:07:57.876Z,101417.97
2022-11-24T04:10:25.719Z,101416.50
2022-11-24T04:12:53.211Z,101418.66
2022-11-24T04:15:21.526Z,101410.38
2022-11-24T04:17:49.870Z,101415.94
2022-11-24T04:20:17.987Z,101412.00
2022-11-24T04:22:45.954Z,101402.88
2022-11-24T04:25:14.872Z,101397.41
2022-11-24T04:27:42.673Z,101409.53
2022-11-24T04:30:10.730Z,101404.66
2022-11-24T04:32:38.270Z,101410.84
2022-11-24T04:35:06.701Z,101412.03
2022-11-24T04:37:34.702Z,101408.91
2022-11-24T04:40:02.618Z,101420.34
2022-11-24T04:42:30.289Z,101427.81
2022-11-24T04:44:57.822Z,101438.88
2022-11-24T04:47:27.158Z,101424.97
2022-11-24T04:49:55.325Z,101438.16
2022-11-24T04:55:12.088Z,101450.75
2022-11-24T04:57:39.822Z,101459.31
2022-11-24T05:00:08.397Z,101473.25
2022-11-24T05:02:35.971Z,101453.25
2022-11-24T05:05:03.762Z,101462.66
2022-11-24T05:07:31.325Z,101474.03
2022-11-24T05:10:25.549Z,101475.50
2022-11-24T05:12:57.571Z,101479.53
2022-11-24T05:15:25.657Z,101481.19
2022-11-24T05:17:53.328Z,101485.69
2022-11-24T05:20:21.874Z,101485.69
2022-11-24T05:22:50.341Z,101497.81
2022-11-24T05:25:26.516Z,101499.94
2022-11-24T05:27:54.585Z,101504.94
2022-11-24T05:30:22.694Z,101506.13
2022-11-24T05:32:50.451Z,101516.84
2022-11-24T05:35:19.801Z,101511.72
2022-11-24T05:37:48.589Z,101519.09
2022-11-24T05:40:16.863Z,101511.84
2022-11-24T05:42:47.725Z,101522.31
2022-11-24T05:45:19.354Z,101529.66
2022-11-24T05:47:48.155Z,101526.81
2022-11-24T05:50:17.500Z,101539.41
2022-11-24T05:52:45.772Z,101536.09
2022-11-24T05:55:15.268Z,101544.03
2022-11-24T05:57:43.310Z,101539.41
2022-11-24T06:00:12.174Z,101538.94
2022-11-24T06:02:43.334Z,101546.09
2022-11-24T06:05:11.546Z,101557.97
2022-11-24T06:07:52.122Z,101552.97
2022-11-24T06:10:21.851Z,101564.88
2022-11-24T06:12:49.995Z,101565.34
2022-11-24T06:15:18.638Z,101573.88
2022-11-24T06:17:55.342Z,101569.16
2022-11-24T06:20:28.490Z,101571.00
2022-11-24T06:23:01.003Z,101579.34
2022-11-24T06:25:30.915Z,101576.94
2022-11-24T06:27:58.779Z,101581.47
2022-11-24T06:30:26.382Z,101571.56
2022-11-24T06:32:56.891Z,101575.03
2022-11-24T06:35:25.070Z,101581.13
2022-11-24T06:37:54.988Z,101583.59
2022-11-24T06:40:23.152Z,101585.66
2022-11-24T06:42:52.736Z,101583.38
2022-11-24T06:45:20.693Z,101590.88
2022-11-24T06:47:48.897Z,101586.69
2022-11-24T06:50:16.854Z,101583.84
2022-11-24T06:52:45.116Z,101601.56
2022-11-24T06:55:13.158Z,101598.13
2022-11-24T06:57:40.958Z,101601.25
2022-11-24T07:00:09.381Z,101598.41
2022-11-24T07:02:41.075Z,101595.53
2022-11-24T07:05:13.440Z,101598.13
2022-11-24T07:07:41.396Z,101594.63
2022-11-24T07:10:09.410Z,101606.28
2022-11-24T07:12:37.228Z,101602.69
2022-11-24T07:15:05.616Z,101601.50
2022-11-24T07:17:36.409Z,101606.03
2022-11-24T07:20:05.307Z,101606.03
2022-11-24T07:22:33.195Z,101601.16
2022-11-24T07:25:01.294Z,101614.13
2022-11-24T07:27:30.933Z,101615.31
2022-11-24T07:30:00.230Z,101620.44
2022-11-24T07:32:27.924Z,101623.66
2022-11-24T07:34:55.735Z,101615.31
2022-11-24T07:37:29.664Z,101618.41
2022-11-24T07:40:19.288Z,101605.81
2022-11-24T07:42:47.309Z,101613.41
2022-11-24T07:45:15.076Z,101618.41
2022-11-24T07:47:43.302Z,101612.81
2022-11-24T07:50:11.672Z,101623.88
2022-11-24T07:52:43.392Z,101619.63
2022-11-24T07:55:15.573Z,101613.31
2022-11-24T08:03:18.084Z,101623.16
2022-11-24T08:08:49.138Z,101604.16
2022-11-24T08:11:18.644Z,101607.59
2022-11-24T08:13:46.894Z,101597.50
2022-11-24T08:16:16.411Z,101591.56
2022-11-24T08:18:49.333Z,101586.56
2022-11-24T08:21:17.801Z,101585.38
2022-11-24T08:23:45.731Z,101580.50
2022-11-24T08:28:59.835Z,101586.56
2022-11-24T08:31:33.834Z,101587.03
2022-11-24T08:34:06.925Z,101587.75
2022-11-24T08:36:35.515Z,101586.78
2022-11-24T08:39:06.421Z,101586.78
2022-11-24T08:41:34.505Z,101587.03
2022-11-24T08:44:02.820Z,101593.44
2022-11-24T08:46:30.810Z,101603.44
2022-11-24T08:48:58.919Z,101602.00
2022-11-24T08:51:27.655Z,101597.13
2022-11-24T08:53:59.551Z,101592.16
2022-11-24T08:56:32.473Z,101586.34
2022-11-24T08:59:01.145Z,101593.09
2022-11-24T09:04:11.349Z,101590.84
2022-11-24T09:06:39.412Z,101586.09
2022-11-24T09:09:07.253Z,101563.34
2022-11-24T09:11:35.038Z,101578.22
2022-11-24T09:14:04.132Z,101577.75
2022-11-24T09:16:32.495Z,101570.63
2022-11-24T09:19:06.382Z,101559.66
2022-11-24T09:21:38.587Z,101558.34
2022-11-24T09:24:08.149Z,101549.56
2022-11-24T09:26:39.050Z,101557.16
2022-11-24T09:29:11.416Z,101553.47
2022-11-24T09:31:40.055Z,101558.13
2022-11-24T09:34:09.629Z,101549.22
2022-11-24T09:36:37.623Z,101554.41
2022-11-24T09:39:05.718Z,101554.66
2022-11-24T09:41:55.758Z,101561.53
2022-11-24T09:44:38.901Z,101564.50
2022-11-24T09:47:17.566Z,101566.31
2022-11-24T09:49:55.186Z,101551.59
2022-11-24T09:53:03.891Z,101558.13
2022-11-24T09:55:40.259Z,101565.03
2022-11-24T10:01:35.053Z,101561.00
2022-11-24T10:04:06.330Z,101573.47
2022-11-24T10:07:10.923Z,101575.34
2022-11-24T10:09:47.835Z,101581.44
2022-11-24T10:12:38.088Z,101585.81
2022-11-24T10:15:11.879Z,101580.94
2022-11-24T10:17:57.105Z,101570.59
2022-11-24T10:21:01.567Z,101574.19
2022-11-24T10:23:56.936Z,101571.78
2022-11-24T10:26:30.838Z,101561.09
2022-11-24T10:28:58.810Z,101557.75
2022-11-24T10:31:30.996Z,101564.53
2022-11-24T10:34:04.385Z,101581.53
2022-11-24T10:37:02.178Z,101570.59
2022-11-24T10:39:35.582Z,101575.94
2022-11-24T10:42:26.832Z,101571.31
2022-11-24T10:45:05.645Z,101562.03
2022-11-24T10:47:34.853Z,101561.34
2022-11-24T10:50:14.278Z,101562.78
2022-11-24T10:53:08.802Z,101563.72
2022-11-24T10:55:55.392Z,101565.84
2022-11-24T10:58:26.716Z,101566.34
2022-11-24T11:01:00.493Z,101571.81
2022-11-24T11:03:34.156Z,101565.16
2022-11-24T11:06:12.435Z,101564.28
2022-11-24T11:08:40.852Z,101568.59
2022-11-24T11:11:19.701Z,101571.56
2022-11-24T11:14:04.263Z,101566.31
2022-11-24T11:16:40.047Z,101567.97
2022-11-24T11:19:47.915Z,101580.81
2022-11-24T11:22:31.274Z,101580.59
2022-11-24T11:25:11.411Z,101570.34
2022-11-24T11:27:41.289Z,101560.34
2022-11-24T11:36:12.402Z,101572.88
2022-11-24T11:38:42.404Z,101563.22
2022-11-24T11:41:19.619Z,101553.69
2022-11-24T11:43:50.913Z,101557.41
2022-11-24T11:46:18.715Z,101560.38
2022-11-24T11:48:48.311Z,101567.50
2022-11-24T11:51:37.201Z,101560.16
2022-11-24T11:54:40.883Z,101558.00
2022-11-24T11:57:26.865Z,101558.59
2022-11-24T12:00:29.947Z,101560.63
2022-11-24T12:03:05.983Z,101557.53
2022-11-24T12:06:09.172Z,101554.44
2022-11-24T12:11:57.955Z,101559.44
2022-11-24T12:14:39.187Z,101569.28
2022-11-24T12:17:19.108Z,101571.09
2022-11-24T12:20:22.036Z,101563.13
2022-11-24T12:23:19.013Z,101568.69
2022-11-24T12:26:02.197Z,101569.66
2022-11-24T12:28:35.787Z,101580.16
2022-11-24T12:31:07.934Z,101582.97
2022-11-24T12:34:17.421Z,101591.31
2022-11-24T12:37:02.100Z,101585.84
2022-11-24T12:39:55.905Z,101592.72
2022-11-24T12:42:27.257Z,101591.91
2022-11-24T12:45:10.149Z,101591.09
2022-11-24T12:47:51.020Z,101587.63
2022-11-24T12:50:21.764Z,101594.41
2022-11-24T12:52:58.829Z,101583.59
2022-11-24T12:55:29.721Z,101585.59
2022-11-24T12:58:16.381Z,101587.72
2022-11-24T13:01:16.746Z,101579.19
2022-11-24T13:04:39.514Z,101590.47
2022-11-24T13:07:11.970Z,101587.75
2022-11-24T13:10:18.782Z,101589.41
2022-11-24T13:13:07.937Z,101581.31
2022-11-24T13:16:20.575Z,101589.88
2022-11-24T13:18:57.261Z,101588.59
2022-11-24T13:21:50.583Z,101597.97
2022-11-24T13:24:19.800Z,101601.78
2022-11-24T13:27:16.664Z,101602.25
2022-11-24T13:29:46.386Z,101602.13
2022-11-24T13:32:15.371Z,101594.66
2022-11-24T13:37:34.923Z,101595.34
2022-11-24T13:40:24.749Z,101585.97
2022-11-24T13:42:55.278Z,101581.06
2022-11-24T13:45:49.527Z,101576.69
2022-11-24T13:48:20.488Z,101592.91
2022-11-24T13:50:52.755Z,101599.34
2022-11-24T13:53:46.138Z,101595.19
2022-11-24T13:56:13.622Z,101598.88
2022-11-24T13:58:44.249Z,101591.25
2022-11-24T14:01:28.865Z,101591.28
2022-11-24T14:07:15.672Z,101594.19
2022-11-24T14:09:50.540Z,101601.09
2022-11-24T14:12:25.940Z,101601.31
2022-11-24T14:14:57.576Z,101601.06
2022-11-24T14:17:28.692Z,101608.81
2022-11-24T14:19:58.415Z,101619.88
2022-11-24T14:22:41.649Z,101623.41
2022-11-24T14:25:38.873Z,101619.50
2022-11-24T14:28:23.848Z,101616.06
2022-11-24T14:31:06.248Z,101627.56
2022-11-24T14:33:33.978Z,101624.59
2022-11-24T14:36:01.464Z,101637.69
2022-11-24T14:38:29.174Z,101633.28
2022-11-24T14:40:56.900Z,101637.72
2022-11-24T14:43:31.939Z,101631.31
2022-11-24T14:46:10.178Z,101635.06
2022-11-24T14:48:40.458Z,101628.28
2022-11-24T14:51:32.411Z,101631.38
2022-11-24T14:54:15.266Z,101621.84
2022-11-24T14:56:57.788Z,101626.28
2022-11-24T14:59:28.085Z,101631.53
2022-11-24T15:01:57.110Z,101638.31
2022-11-24T15:07:27.421Z,101647.09
2022-11-24T15:10:01.097Z,101646.72
2022-11-24T15:12:38.192Z,101657.41
2022-11-24T15:15:14.920Z,101661.97
2022-11-24T15:18:02.842Z,101663.59
2022-11-24T15:20:44.825Z,101676.19
2022-11-24T15:23:23.223Z,101679.19
2022-11-24T15:25:55.233Z,101680.28
2022-11-24T15:28:26.306Z,101672.88
2022-11-24T15:30:55.571Z,101676.28
2022-11-24T15:33:24.045Z,101683.56
2022-11-24T15:35:52.198Z,101682.13
2022-11-24T15:38:20.268Z,101693.53
2022-11-24T15:40:49.996Z,101685.69
2022-11-24T15:43:37.628Z,101682.81
2022-11-24T15:46:05.711Z,101681.38
2022-11-24T15:48:33.582Z,101687.53
2022-11-24T15:51:03.352Z,101686.84
2022-11-24T15:53:44.930Z,101685.41
2022-11-24T15:56:31.303Z,101681.81
2022-11-24T15:58:59.003Z,101684.09
2022-11-24T16:01:31.484Z,101688.78
2022-11-24T16:03:59.173Z,101694.28
2022-11-24T16:06:26.548Z,101689.16
2022-11-24T16:08:54.771Z,101678.34
2022-11-24T16:11:23.275Z,101687.75
2022-11-24T16:13:53.685Z,101708.94
2022-11-24T16:16:23.583Z,101713.72
2022-11-24T16:18:51.449Z,101712.72
2022-11-24T16:21:18.896Z,101717.09
2022-11-24T16:23:46.877Z,101705.84
2022-11-24T16:26:14.421Z,101710.84
2022-11-24T16:28:42.391Z,101711.56
2022-11-24T16:31:10.041Z,101717.78
2022-11-24T16:33:40.947Z,101710.56
2022-11-24T16:36:08.797Z,101704.50
2022-11-24T16:41:22.082Z,101699.81
2022-11-24T16:43:49.531Z,101704.53
2022-11-24T16:46:21.343Z,101703.84
2022-11-24T16:48:52.363Z,101714.06
2022-11-24T16:51:22.103Z,101720.56
2022-11-24T16:53:57.894Z,101713.78
2022-11-24T16:56:26.917Z,101713.59
2022-11-24T16:58:54.566Z,101709.88
2022-11-24T17:01:22.757Z,101710.28
2022-11-24T17:03:50.551Z,101710.75
2022-11-24T17:06:19.364Z,101706.16
2022-11-24T17:08:47.785Z,101688.63
2022-11-24T17:11:16.521Z,101686.84
2022-11-24T17:13:46.050Z,101684.47
2022-11-24T17:16:16.316Z,101682.09
2022-11-24T17:18:44.253Z,101696.00
2022-11-24T17:21:17.379Z,101696.09
2022-11-24T17:23:45.255Z,101701.72
2022-11-24T17:26:15.288Z,101700.97
2022-11-24T17:28:43.219Z,101693.75
2022-11-24T17:31:32.382Z,101691.94
2022-11-24T17:34:01.190Z,101684.41
2022-11-24T17:36:30.642Z,101688.38
2022-11-24T17:39:00.421Z,101683.41
2022-11-24T17:41:28.269Z,101704.72
2022-11-24T17:43:56.973Z,101694.22
2022-11-24T17:46:25.075Z,101706.53
2022-11-24T17:48:53.402Z,101723.72
2022-11-24T17:51:23.426Z,101726.22
2022-11-24T17:53:52.749Z,101714.56
2022-11-24T17:56:25.648Z,101735.13
2022-11-24T17:59:09.172Z,101734.78
2022-11-24T18:01:36.746Z,101723.03
2022-11-24T18:04:19.605Z,101718.44
2022-11-24T18:06:47.339Z,101737.00
2022-11-24T18:09:14.685Z,101730.97
2022-11-24T18:11:42.185Z,101736.56
2022-11-24T18:14:10.368Z,101732.06
2022-11-24T18:16:37.984Z,101732.06
2022-11-24T18:19:10.896Z,101726.22
2022-11-24T18:21:43.985Z,101738.50
2022-11-24T18:24:12.649Z,101748.53
2022-11-24T18:26:41.108Z,101742.66
2022-11-24T18:29:09.580Z,101745.00
2022-11-24T18:31:37.834Z,101747.16
2022-11-24T18:34:06.476Z,101751.34
2022-11-24T18:36:35.222Z,101750.72
2022-11-24T18:39:07.853Z,101749.88
2022-11-24T18:41:35.977Z,101752.38
2022-11-24T18:44:08.345Z,101763.75
2022-11-24T18:46:37.320Z,101755.50
2022-11-24T18:49:05.431Z,101750.81
2022-11-24T18:54:29.716Z,101748.91
2022-11-24T18:57:02.968Z,101751.53
2022-11-24T18:59:31.254Z,101755.72
2022-11-24T19:01:58.706Z,101763.56
2022-11-24T19:04:26.585Z,101760.31
2022-11-24T19:06:53.886Z,101769.69
2022-11-24T19:09:23.038Z,101769.69
2022-11-24T19:11:50.687Z,101773.91
2022-11-24T19:14:19.362Z,101768.78
2022-11-24T19:16:50.362Z,101759.88
2022-11-24T19:19:18.518Z,101765.06
2022-11-24T19:21:46.115Z,101762.88
2022-11-24T19:24:13.785Z,101764.59
2022-11-24T19:26:41.502Z,101765.88
2022-11-24T19:29:09.654Z,101777.31
2022-11-24T19:31:40.680Z,101772.63
2022-11-24T19:34:08.445Z,101771.09
2022-11-24T19:36:36.294Z,101781.16
2022-11-24T19:39:05.372Z,101779.88
2022-11-24T19:41:34.243Z,101780.06
2022-11-24T19:44:01.931Z,101792.84
2022-11-24T19:46:30.410Z,101777.13
2022-11-24T19:49:02.590Z,101783.28
2022-11-24T19:51:57.441Z,101778.47
2022-11-24T19:54:25.033Z,101770.13
2022-11-24T19:56:53.435Z,101783.47
2022-11-24T19:59:23.762Z,101784.00
2022-11-24T20:01:51.290Z,101783.72
2022-11-24T20:04:20.677Z,101784.25
2022-11-24T20:06:48.380Z,101799.97
2022-11-24T20:09:18.085Z,101796.22
2022-11-24T20:11:47.090Z,101788.41
2022-11-24T20:14:16.178Z,101792.44
2022-11-24T20:19:33.149Z,101764.69
2022-11-24T20:22:00.988Z,101776.19
2022-11-24T20:24:28.463Z,101767.69
2022-11-24T20:26:58.533Z,101774.31
2022-11-24T20:29:28.676Z,101768.19
2022-11-24T20:31:56.832Z,101767.97
2022-11-24T20:34:24.839Z,101762.78
2022-11-24T20:36:53.342Z,101772.97
2022-11-24T20:39:25.616Z,101782.34
2022-11-24T20:41:54.530Z,101780.28
2022-11-24T20:47:06.534Z,101795.91
2022-11-24T20:49:34.058Z,101785.28
2022-11-24T20:52:02.149Z,101779.63
2022-11-24T20:54:29.753Z,101783.50
2022-11-24T20:56:57.369Z,101784.22
2022-11-24T20:59:25.347Z,101780.88
2022-11-24T21:04:39.608Z,101778.75
2022-11-24T21:07:07.032Z,101775.22
2022-11-24T21:09:34.567Z,101776.47
2022-11-24T21:12:02.130Z,101780.59
2022-11-24T21:14:33.972Z,101779.94
2022-11-24T21:19:47.576Z,101785.09
2022-11-24T21:22:14.931Z,101787.66
2022-11-24T21:24:42.474Z,101788.59
2022-11-24T21:27:09.987Z,101801.63
2022-11-24T21:29:37.553Z,101796.13
2022-11-24T21:32:05.179Z,101795.53
2022-11-24T21:34:32.918Z,101788.69
2022-11-24T21:37:00.547Z,101790.28
2022-11-24T21:39:28.063Z,101780.22
2022-11-24T21:41:55.547Z,101779.53
2022-11-24T21:44:41.486Z,101784.69
2022-11-24T21:47:09.041Z,101774.59
2022-11-24T21:49:36.444Z,101785.09
2022-11-24T21:52:04.095Z,101790.63
2022-11-24T21:54:31.606Z,101792.78
2022-11-24T21:56:59.017Z,101776.59
2022-11-24T21:59:26.561Z,101774.31
2022-11-24T22:01:54.433Z,101770.50
2022-11-24T22:04:21.973Z,101775.13
2022-11-24T22:06:49.435Z,101788.16
2022-11-24T22:09:18.383Z,101788.06
2022-11-24T22:11:46.765Z,101788.75
2022-11-24T22:14:14.190Z,101784.03
2022-11-24T22:16:41.809Z,101778.19
2022-11-24T22:19:09.189Z,101780.38
2022-11-24T22:21:37.102Z,101765.88
2022-11-24T22:24:04.871Z,101758.75
2022-11-24T22:26:32.420Z,101766.75
2022-11-24T22:28:59.867Z,101762.63
2022-11-24T22:31:29.623Z,101773.44
2022-11-24T22:33:59.211Z,101773.41
2022-11-24T22:36:36.603Z,101774.56
2022-11-24T22:39:06.039Z,101766.88
2022-11-24T22:41:36.163Z,101776.06
2022-11-24T22:44:04.553Z,101771.56
2022-11-24T22:46:32.507Z,101782.88
2022-11-24T22:49:01.906Z,101780.59
2022-11-24T22:51:34.258Z,101779.31
2022-11-24T22:54:03.961Z,101780.19
2022-11-24T22:56:32.667Z,101787.72
2022-11-24T22:59:01.619Z,101779.19
2022-11-24T23:01:30.251Z,101786.38
2022-11-24T23:03:58.073Z,101780.81
2022-11-24T23:06:27.546Z,101779.59
2022-11-24T23:08:55.906Z,101776.78
2022-11-24T23:11:31.543Z,101780.09
2022-11-24T23:14:02.946Z,101784.38
2022-11-24T23:16:30.843Z,101785.66
2022-11-24T23:18:58.679Z,101782.50
2022-11-24T23:21:34.444Z,101787.16
2022-11-24T23:24:03.764Z,101793.66
2022-11-24T23:26:34.572Z,101783.94
2022-11-24T23:29:02.856Z,101787.63
2022-11-24T23:31:30.552Z,101778.47
2022-11-24T23:34:00.551Z,101778.44
2022-11-24T23:36:28.944Z,101782.19
2022-11-24T23:38:57.061Z,101780.91
2022-11-24T23:41:26.068Z,101781.56
2022-11-24T23:43:53.702Z,101785.56
2022-11-24T23:46:23.304Z,101793.72
2022-11-24T23:48:52.551Z,101804.59
2022-11-24T23:51:22.414Z,101801.13
2022-11-24T23:53:50.967Z,101797.78
2022-11-24T23:56:21.513Z,101800.56
2022-11-24T23:58:49.389Z,101806.69
